UNNT/OVB METAR and TAF weather

Enter ICAO airport designator
Station Type Date Time Source
UNNT METAR 2019/05/21 20:30 UTC NOAA

UNNT 212030Z 25004MPS 9999 BKN040 06/03 Q1006 R25/090070 R16/190065 NOSIG RMK QFE744/0993


Station Type Date Time Source
UNNT Decoded METAR 2019/05/21 20:30 UTC NOAA

Station name not available
May 21, 2019 - 04:30 PM EDT / 2019.05.21 2030 UTC
Wind: from the WSW (250 degrees) at 9 MPH (8 KT):0
Visibility: greater than 7 mile(s):0
Sky conditions: mostly cloudy
Temperature: 42 F (6 C)
Dew Point: 37 F (3 C)
Relative Humidity: 81%
Pressure (altimeter): 29.71 in. Hg (1006 hPa)
ob: UNNT 212030Z 25004MPS 9999 BKN040 06/03 Q1006 R25/090070 R16/190065 NOSIG RMK QFE744/0993
cycle: 20

Station Type Date Time Source
UNNT TAF 2019/05/21 21:21 UTC NOAA

TAF UNNT 212000Z 2121/2221 26003G08MPS 9999 BKN040CB
TEMPO 2205/2215 31005G12MPS -SHRA

Example: see airport list